sensor_id;sensor_type;location;lat;lon;timestamp;P1;durP1;ratioP1;P2;durP2;ratioP2
68989;SDS011;56046;47.270;11.368;2022-09-30T00:01:07;9.20;;;5.30;;
68989;SDS011;56046;47.270;11.368;2022-09-30T00:03:33;12.32;;;5.82;;
68989;SDS011;56046;47.270;11.368;2022-09-30T00:06:00;10.38;;;5.57;;
68989;SDS011;56046;47.270;11.368;2022-09-30T00:08:26;10.70;;;5.65;;
68989;SDS011;56046;47.270;11.368;2022-09-30T00:11:01;9.90;;;5.03;;
68989;SDS011;56046;47.270;11.368;2022-09-30T00:13:28;9.35;;;5.10;;
68989;SDS011;56046;47.270;11.368;2022-09-30T00:15:53;8.70;;;5.07;;
68989;SDS011;56046;47.270;11.368;2022-09-30T00:18:19;8.47;;;4.77;;
68989;SDS011;56046;47.270;11.368;2022-09-30T00:20:44;8.20;;;4.70;;
68989;SDS011;56046;47.270;11.368;2022-09-30T00:23:09;8.67;;;5.27;;
68989;SDS011;56046;47.270;11.368;2022-09-30T00:25:34;11.53;;;5.23;;
68989;SDS011;56046;47.270;11.368;2022-09-30T00:28:00;9.47;;;5.20;;
68989;SDS011;56046;47.270;11.368;2022-09-30T00:30:25;10.50;;;5.83;;
68989;SDS011;56046;47.270;11.368;2022-09-30T00:32:50;10.97;;;5.43;;
68989;SDS011;56046;47.270;11.368;2022-09-30T00:35:15;9.63;;;5.73;;
68989;SDS011;56046;47.270;11.368;2022-09-30T00:37:41;10.82;;;5.60;;
68989;SDS011;56046;47.270;11.368;2022-09-30T00:40:07;9.70;;;5.73;;
68989;SDS011;56046;47.270;11.368;2022-09-30T00:42:32;9.37;;;5.50;;
68989;SDS011;56046;47.270;11.368;2022-09-30T00:45:04;9.30;;;4.47;;
68989;SDS011;56046;47.270;11.368;2022-09-30T00:52:45;10.00;;;5.03;;
68989;SDS011;56046;47.270;11.368;2022-09-30T00:55:15;11.57;;;5.53;;
68989;SDS011;56046;47.270;11.368;2022-09-30T00:57:45;10.13;;;5.70;;
68989;SDS011;56046;47.270;11.368;2022-09-30T01:00:10;10.03;;;5.70;;
68989;SDS011;56046;47.270;11.368;2022-09-30T01:02:35;10.10;;;6.05;;
68989;SDS011;56046;47.270;11.368;2022-09-30T01:05:00;11.60;;;5.57;;
68989;SDS011;56046;47.270;11.368;2022-09-30T01:07:26;8.63;;;4.83;;
68989;SDS011;56046;47.270;11.368;2022-09-30T01:09:52;8.75;;;4.60;;
68989;SDS011;56046;47.270;11.368;2022-09-30T01:12:19;10.93;;;5.20;;
68989;SDS011;56046;47.270;11.368;2022-09-30T01:14:45;8.77;;;4.90;;
68989;SDS011;56046;47.270;11.368;2022-09-30T01:37:14;17.23;;;8.85;;
68989;SDS011;56046;47.270;11.368;2022-09-30T01:42:30;17.33;;;8.98;;
68989;SDS011;56046;47.270;11.368;2022-09-30T01:45:12;19.02;;;9.77;;
68989;SDS011;56046;47.270;11.368;2022-09-30T01:47:50;16.17;;;9.27;;
68989;SDS011;56046;47.270;11.368;2022-09-30T01:50:22;18.38;;;9.05;;
68989;SDS011;56046;47.270;11.368;2022-09-30T01:52:59;17.67;;;9.50;;
68989;SDS011;56046;47.270;11.368;2022-09-30T01:55:29;17.15;;;9.07;;
68989;SDS011;56046;47.270;11.368;2022-09-30T01:57:56;16.05;;;8.73;;
68989;SDS011;56046;47.270;11.368;2022-09-30T02:00:24;18.42;;;8.90;;
68989;SDS011;56046;47.270;11.368;2022-09-30T02:03:25;17.03;;;9.30;;
68989;SDS011;56046;47.270;11.368;2022-09-30T02:11:31;18.50;;;8.67;;
68989;SDS011;56046;47.270;11.368;2022-09-30T02:14:08;14.95;;;8.25;;
68989;SDS011;56046;47.270;11.368;2022-09-30T02:16:39;16.48;;;8.75;;
68989;SDS011;56046;47.270;11.368;2022-09-30T02:21:35;17.33;;;9.10;;
68989;SDS011;56046;47.270;11.368;2022-09-30T02:24:04;20.47;;;10.83;;
68989;SDS011;56046;47.270;11.368;2022-09-30T02:26:31;16.98;;;8.98;;
68989;SDS011;56046;47.270;11.368;2022-09-30T02:29:04;20.52;;;9.85;;
68989;SDS011;56046;47.270;11.368;2022-09-30T02:31:31;21.00;;;10.45;;
68989;SDS011;56046;47.270;11.368;2022-09-30T02:38:58;20.13;;;10.05;;
68989;SDS011;56046;47.270;11.368;2022-09-30T02:41:25;18.85;;;10.80;;
68989;SDS011;56046;47.270;11.368;2022-09-30T02:43:51;18.65;;;9.98;;
68989;SDS011;56046;47.270;11.368;2022-09-30T02:59:17;17.20;;;9.05;;
68989;SDS011;56046;47.270;11.368;2022-09-30T03:01:42;16.70;;;8.00;;
68989;SDS011;56046;47.270;11.368;2022-09-30T03:04:09;15.87;;;9.03;;
68989;SDS011;56046;47.270;11.368;2022-09-30T03:06:36;18.63;;;9.38;;
68989;SDS011;56046;47.270;11.368;2022-09-30T03:09:02;19.98;;;9.55;;
68989;SDS011;56046;47.270;11.368;2022-09-30T03:11:28;17.07;;;9.40;;
68989;SDS011;56046;47.270;11.368;2022-09-30T03:27:05;18.80;;;9.55;;
68989;SDS011;56046;47.270;11.368;2022-09-30T03:34:37;18.92;;;9.48;;
68989;SDS011;56046;47.270;11.368;2022-09-30T03:37:16;18.10;;;9.30;;
68989;SDS011;56046;47.270;11.368;2022-09-30T03:42:37;17.35;;;9.20;;
68989;SDS011;56046;47.270;11.368;2022-09-30T03:47:28;17.63;;;9.30;;
68989;SDS011;56046;47.270;11.368;2022-09-30T03:49:56;20.57;;;10.20;;
68989;SDS011;56046;47.270;11.368;2022-09-30T03:52:23;18.45;;;9.85;;
68989;SDS011;56046;47.270;11.368;2022-09-30T03:54:51;19.88;;;10.50;;
68989;SDS011;56046;47.270;11.368;2022-09-30T03:57:16;20.90;;;10.35;;
68989;SDS011;56046;47.270;11.368;2022-09-30T03:59:41;19.63;;;10.17;;
68989;SDS011;56046;47.270;11.368;2022-09-30T04:02:07;16.20;;;8.70;;
68989;SDS011;56046;47.270;11.368;2022-09-30T04:04:34;18.48;;;9.90;;
68989;SDS011;56046;47.270;11.368;2022-09-30T04:06:59;16.37;;;8.63;;
68989;SDS011;56046;47.270;11.368;2022-09-30T04:09:25;17.47;;;9.50;;
68989;SDS011;56046;47.270;11.368;2022-09-30T04:11:51;16.65;;;9.20;;
68989;SDS011;56046;47.270;11.368;2022-09-30T04:14:16;16.53;;;9.47;;
68989;SDS011;56046;47.270;11.368;2022-09-30T04:16:41;17.27;;;9.37;;
68989;SDS011;56046;47.270;11.368;2022-09-30T04:19:07;17.40;;;9.70;;
68989;SDS011;56046;47.270;11.368;2022-09-30T04:21:32;16.97;;;9.27;;
68989;SDS011;56046;47.270;11.368;2022-09-30T04:23:57;17.90;;;8.93;;
68989;SDS011;56046;47.270;11.368;2022-09-30T04:26:22;18.90;;;9.20;;
68989;SDS011;56046;47.270;11.368;2022-09-30T04:28:48;17.63;;;9.50;;
68989;SDS011;56046;47.270;11.368;2022-09-30T04:31:13;16.50;;;9.13;;
68989;SDS011;56046;47.270;11.368;2022-09-30T04:33:41;16.43;;;9.17;;
68989;SDS011;56046;47.270;11.368;2022-09-30T04:36:06;19.58;;;9.43;;
68989;SDS011;56046;47.270;11.368;2022-09-30T04:38:32;17.30;;;9.20;;
68989;SDS011;56046;47.270;11.368;2022-09-30T04:41:00;17.90;;;10.07;;
68989;SDS011;56046;47.270;11.368;2022-09-30T04:43:25;17.17;;;9.13;;
68989;SDS011;56046;47.270;11.368;2022-09-30T04:45:51;19.50;;;9.80;;
68989;SDS011;56046;47.270;11.368;2022-09-30T04:48:16;17.67;;;9.33;;
68989;SDS011;56046;47.270;11.368;2022-09-30T04:50:42;17.27;;;9.60;;
68989;SDS011;56046;47.270;11.368;2022-09-30T04:53:07;17.90;;;9.00;;
68989;SDS011;56046;47.270;11.368;2022-09-30T04:55:33;17.67;;;9.40;;
68989;SDS011;56046;47.270;11.368;2022-09-30T04:57:58;15.80;;;8.63;;
68989;SDS011;56046;47.270;11.368;2022-09-30T05:00:23;16.05;;;8.73;;
68989;SDS011;56046;47.270;11.368;2022-09-30T05:02:50;17.10;;;8.53;;
68989;SDS011;56046;47.270;11.368;2022-09-30T05:05:15;15.88;;;8.65;;
68989;SDS011;56046;47.270;11.368;2022-09-30T05:07:41;15.40;;;8.07;;
68989;SDS011;56046;47.270;11.368;2022-09-30T05:10:07;18.65;;;10.18;;
68989;SDS011;56046;47.270;11.368;2022-09-30T05:12:32;16.57;;;9.17;;
68989;SDS011;56046;47.270;11.368;2022-09-30T05:14:58;18.60;;;9.27;;
68989;SDS011;56046;47.270;11.368;2022-09-30T05:17:23;16.60;;;9.07;;
68989;SDS011;56046;47.270;11.368;2022-09-30T05:19:48;17.30;;;9.30;;
68989;SDS011;56046;47.270;11.368;2022-09-30T05:22:14;14.93;;;8.97;;
68989;SDS011;56046;47.270;11.368;2022-09-30T05:24:39;17.65;;;9.07;;
68989;SDS011;56046;47.270;11.368;2022-09-30T05:27:04;16.93;;;9.57;;
68989;SDS011;56046;47.270;11.368;2022-09-30T05:29:30;15.82;;;8.65;;
68989;SDS011;56046;47.270;11.368;2022-09-30T05:31:56;16.60;;;8.23;;
68989;SDS011;56046;47.270;11.368;2022-09-30T05:34:21;16.93;;;9.10;;
68989;SDS011;56046;47.270;11.368;2022-09-30T05:36:47;16.87;;;8.90;;
68989;SDS011;56046;47.270;11.368;2022-09-30T05:39:12;16.43;;;8.67;;
68989;SDS011;56046;47.270;11.368;2022-09-30T05:41:37;17.70;;;10.20;;
68989;SDS011;56046;47.270;11.368;2022-09-30T05:44:03;17.33;;;8.70;;
68989;SDS011;56046;47.270;11.368;2022-09-30T05:46:29;17.20;;;9.30;;
68989;SDS011;56046;47.270;11.368;2022-09-30T05:48:54;14.90;;;7.97;;
68989;SDS011;56046;47.270;11.368;2022-09-30T05:51:19;15.47;;;8.37;;
68989;SDS011;56046;47.270;11.368;2022-09-30T05:53:45;16.63;;;9.17;;
68989;SDS011;56046;47.270;11.368;2022-09-30T05:56:10;17.10;;;9.20;;
68989;SDS011;56046;47.270;11.368;2022-09-30T05:58:36;16.83;;;8.85;;
68989;SDS011;56046;47.270;11.368;2022-09-30T06:01:06;16.33;;;8.33;;
68989;SDS011;56046;47.270;11.368;2022-09-30T06:03:32;16.95;;;8.40;;
68989;SDS011;56046;47.270;11.368;2022-09-30T06:05:57;16.30;;;8.50;;
68989;SDS011;56046;47.270;11.368;2022-09-30T06:08:23;16.60;;;8.85;;
68989;SDS011;56046;47.270;11.368;2022-09-30T06:10:48;17.90;;;9.23;;
68989;SDS011;56046;47.270;11.368;2022-09-30T06:13:14;15.47;;;9.27;;
68989;SDS011;56046;47.270;11.368;2022-09-30T06:15:40;16.40;;;9.10;;
68989;SDS011;56046;47.270;11.368;2022-09-30T06:18:05;17.40;;;8.60;;
68989;SDS011;56046;47.270;11.368;2022-09-30T06:20:31;15.40;;;8.32;;
68989;SDS011;56046;47.270;11.368;2022-09-30T06:22:59;15.67;;;8.37;;
68989;SDS011;56046;47.270;11.368;2022-09-30T06:25:25;16.65;;;9.10;;
68989;SDS011;56046;47.270;11.368;2022-09-30T06:27:52;16.58;;;9.13;;
68989;SDS011;56046;47.270;11.368;2022-09-30T06:30:18;18.50;;;9.50;;
68989;SDS011;56046;47.270;11.368;2022-09-30T06:32:43;18.83;;;9.40;;
68989;SDS011;56046;47.270;11.368;2022-09-30T06:35:09;15.05;;;8.13;;
68989;SDS011;56046;47.270;11.368;2022-09-30T06:37:34;15.23;;;8.63;;
68989;SDS011;56046;47.270;11.368;2022-09-30T06:40:02;16.65;;;8.50;;
68989;SDS011;56046;47.270;11.368;2022-09-30T06:42:28;17.75;;;9.52;;
68989;SDS011;56046;47.270;11.368;2022-09-30T06:44:53;15.37;;;8.30;;
68989;SDS011;56046;47.270;11.368;2022-09-30T06:47:19;13.52;;;7.20;;
68989;SDS011;56046;47.270;11.368;2022-09-30T06:49:44;14.43;;;8.30;;
68989;SDS011;56046;47.270;11.368;2022-09-30T06:52:09;12.93;;;7.93;;
68989;SDS011;56046;47.270;11.368;2022-09-30T06:54:38;14.68;;;7.88;;
68989;SDS011;56046;47.270;11.368;2022-09-30T06:57:03;13.20;;;8.00;;
68989;SDS011;56046;47.270;11.368;2022-09-30T06:59:29;13.57;;;7.57;;
68989;SDS011;56046;47.270;11.368;2022-09-30T07:01:54;12.13;;;7.47;;
68989;SDS011;56046;47.270;11.368;2022-09-30T07:04:19;11.57;;;7.37;;
68989;SDS011;56046;47.270;11.368;2022-09-30T07:06:44;12.13;;;7.07;;
68989;SDS011;56046;47.270;11.368;2022-09-30T07:09:10;12.10;;;6.63;;
68989;SDS011;56046;47.270;11.368;2022-09-30T07:11:36;11.57;;;6.60;;
68989;SDS011;56046;47.270;11.368;2022-09-30T07:14:01;10.93;;;6.57;;
68989;SDS011;56046;47.270;11.368;2022-09-30T07:16:28;10.90;;;6.90;;
68989;SDS011;56046;47.270;11.368;2022-09-30T07:18:53;11.52;;;6.53;;
68989;SDS011;56046;47.270;11.368;2022-09-30T07:21:19;10.83;;;6.30;;
68989;SDS011;56046;47.270;11.368;2022-09-30T07:23:44;12.67;;;7.80;;
68989;SDS011;56046;47.270;11.368;2022-09-30T07:26:12;13.57;;;7.18;;
68989;SDS011;56046;47.270;11.368;2022-09-30T07:28:37;12.20;;;7.33;;
68989;SDS011;56046;47.270;11.368;2022-09-30T07:31:07;10.98;;;6.78;;
68989;SDS011;56046;47.270;11.368;2022-09-30T07:33:33;13.18;;;6.95;;
68989;SDS011;56046;47.270;11.368;2022-09-30T07:35:59;15.07;;;8.70;;
68989;SDS011;56046;47.270;11.368;2022-09-30T07:38:26;12.83;;;8.03;;
68989;SDS011;56046;47.270;11.368;2022-09-30T07:40:59;15.02;;;7.80;;
68989;SDS011;56046;47.270;11.368;2022-09-30T07:43:26;12.30;;;7.20;;
68989;SDS011;56046;47.270;11.368;2022-09-30T07:46:01;11.70;;;6.65;;
68989;SDS011;56046;47.270;11.368;2022-09-30T07:48:26;11.70;;;7.07;;
68989;SDS011;56046;47.270;11.368;2022-09-30T07:51:11;10.30;;;6.47;;
68989;SDS011;56046;47.270;11.368;2022-09-30T07:53:37;8.23;;;4.75;;
68989;SDS011;56046;47.270;11.368;2022-09-30T07:56:06;8.00;;;5.20;;
68989;SDS011;56046;47.270;11.368;2022-09-30T07:58:32;10.38;;;5.70;;
68989;SDS011;56046;47.270;11.368;2022-09-30T08:00:57;9.40;;;5.50;;
68989;SDS011;56046;47.270;11.368;2022-09-30T08:03:23;8.63;;;5.00;;
68989;SDS011;56046;47.270;11.368;2022-09-30T08:05:48;6.83;;;3.90;;
68989;SDS011;56046;47.270;11.368;2022-09-30T08:08:14;8.00;;;4.40;;
68989;SDS011;56046;47.270;11.368;2022-09-30T08:10:40;7.65;;;4.65;;
68989;SDS011;56046;47.270;11.368;2022-09-30T08:13:05;7.40;;;4.80;;
68989;SDS011;56046;47.270;11.368;2022-09-30T08:15:31;11.43;;;6.32;;
68989;SDS011;56046;47.270;11.368;2022-09-30T08:17:56;8.87;;;5.50;;
68989;SDS011;56046;47.270;11.368;2022-09-30T08:20:21;8.50;;;5.40;;
68989;SDS011;56046;47.270;11.368;2022-09-30T08:22:47;8.17;;;4.57;;
68989;SDS011;56046;47.270;11.368;2022-09-30T08:25:15;7.68;;;4.60;;
68989;SDS011;56046;47.270;11.368;2022-09-30T08:27:41;7.40;;;4.83;;
68989;SDS011;56046;47.270;11.368;2022-09-30T08:30:06;6.47;;;3.87;;
68989;SDS011;56046;47.270;11.368;2022-09-30T08:32:31;6.83;;;4.27;;
68989;SDS011;56046;47.270;11.368;2022-09-30T08:34:57;6.90;;;4.40;;
68989;SDS011;56046;47.270;11.368;2022-09-30T08:37:22;8.60;;;4.97;;
68989;SDS011;56046;47.270;11.368;2022-09-30T08:39:48;9.80;;;4.40;;
68989;SDS011;56046;47.270;11.368;2022-09-30T08:44:42;8.20;;;4.30;;
68989;SDS011;56046;47.270;11.368;2022-09-30T08:49:59;8.20;;;5.13;;
68989;SDS011;56046;47.270;11.368;2022-09-30T08:52:27;7.88;;;4.57;;
68989;SDS011;56046;47.270;11.368;2022-09-30T08:54:55;9.80;;;4.90;;
68989;SDS011;56046;47.270;11.368;2022-09-30T08:57:21;8.30;;;5.43;;
68989;SDS011;56046;47.270;11.368;2022-09-30T08:59:54;7.90;;;5.00;;
68989;SDS011;56046;47.270;11.368;2022-09-30T09:02:22;8.95;;;4.60;;
68989;SDS011;56046;47.270;11.368;2022-09-30T09:04:48;9.87;;;5.70;;
68989;SDS011;56046;47.270;11.368;2022-09-30T09:07:25;11.88;;;6.10;;
68989;SDS011;56046;47.270;11.368;2022-09-30T09:20:06;7.37;;;4.60;;
68989;SDS011;56046;47.270;11.368;2022-09-30T09:22:32;7.55;;;4.63;;
68989;SDS011;56046;47.270;11.368;2022-09-30T09:24:58;7.60;;;4.55;;
68989;SDS011;56046;47.270;11.368;2022-09-30T09:27:25;9.03;;;5.63;;
68989;SDS011;56046;47.270;11.368;2022-09-30T09:32:19;8.40;;;4.78;;
68989;SDS011;56046;47.270;11.368;2022-09-30T09:35:08;7.30;;;4.80;;
68989;SDS011;56046;47.270;11.368;2022-09-30T09:40:17;7.17;;;4.33;;
68989;SDS011;56046;47.270;11.368;2022-09-30T09:43:19;6.82;;;3.80;;
68989;SDS011;56046;47.270;11.368;2022-09-30T09:48:12;8.52;;;4.93;;
68989;SDS011;56046;47.270;11.368;2022-09-30T09:56:16;6.18;;;3.80;;
68989;SDS011;56046;47.270;11.368;2022-09-30T10:01:32;5.85;;;3.53;;
68989;SDS011;56046;47.270;11.368;2022-09-30T10:04:11;5.18;;;3.15;;
68989;SDS011;56046;47.270;11.368;2022-09-30T10:06:46;6.07;;;3.30;;
68989;SDS011;56046;47.270;11.368;2022-09-30T10:11:46;5.47;;;4.05;;
68989;SDS011;56046;47.270;11.368;2022-09-30T10:14:15;5.57;;;3.70;;
68989;SDS011;56046;47.270;11.368;2022-09-30T10:16:40;7.50;;;3.67;;
68989;SDS011;56046;47.270;11.368;2022-09-30T10:19:20;8.10;;;3.97;;
68989;SDS011;56046;47.270;11.368;2022-09-30T10:21:46;6.03;;;3.85;;
68989;SDS011;56046;47.270;11.368;2022-09-30T10:24:18;5.83;;;3.87;;
68989;SDS011;56046;47.270;11.368;2022-09-30T10:26:44;5.97;;;3.87;;
68989;SDS011;56046;47.270;11.368;2022-09-30T10:29:22;6.07;;;3.60;;
68989;SDS011;56046;47.270;11.368;2022-09-30T10:31:49;6.60;;;3.60;;
68989;SDS011;56046;47.270;11.368;2022-09-30T10:36:41;8.17;;;4.07;;
68989;SDS011;56046;47.270;11.368;2022-09-30T10:39:14;6.70;;;3.55;;
68989;SDS011;56046;47.270;11.368;2022-09-30T10:41:43;6.20;;;3.72;;
68989;SDS011;56046;47.270;11.368;2022-09-30T10:44:16;5.97;;;3.57;;
68989;SDS011;56046;47.270;11.368;2022-09-30T10:46:43;5.43;;;3.33;;
68989;SDS011;56046;47.270;11.368;2022-09-30T10:49:28;7.13;;;3.47;;
68989;SDS011;56046;47.270;11.368;2022-09-30T10:51:55;5.70;;;3.63;;
68989;SDS011;56046;47.270;11.368;2022-09-30T10:57:05;5.22;;;3.63;;
68989;SDS011;56046;47.270;11.368;2022-09-30T10:59:37;5.65;;;3.90;;
68989;SDS011;56046;47.270;11.368;2022-09-30T11:02:25;5.60;;;3.60;;
68989;SDS011;56046;47.270;11.368;2022-09-30T11:04:55;5.10;;;2.77;;
68989;SDS011;56046;47.270;11.368;2022-09-30T11:10:02;4.32;;;2.25;;
68989;SDS011;56046;47.270;11.368;2022-09-30T11:12:34;3.03;;;2.17;;
68989;SDS011;56046;47.270;11.368;2022-09-30T11:15:23;3.15;;;2.13;;
68989;SDS011;56046;47.270;11.368;2022-09-30T11:17:53;4.60;;;2.57;;
68989;SDS011;56046;47.270;11.368;2022-09-30T11:25:25;6.03;;;3.10;;
68989;SDS011;56046;47.270;11.368;2022-09-30T11:30:22;5.53;;;3.47;;
68989;SDS011;56046;47.270;11.368;2022-09-30T11:42:51;4.43;;;2.70;;
68989;SDS011;56046;47.270;11.368;2022-09-30T11:45:20;5.70;;;3.13;;
68989;SDS011;56046;47.270;11.368;2022-09-30T11:50:27;4.90;;;3.15;;
68989;SDS011;56046;47.270;11.368;2022-09-30T11:53:02;5.13;;;3.13;;
68989;SDS011;56046;47.270;11.368;2022-09-30T11:55:56;6.77;;;3.77;;
68989;SDS011;56046;47.270;11.368;2022-09-30T11:58:17;5.50;;;3.88;;
68989;SDS011;56046;47.270;11.368;2022-09-30T12:00:45;5.65;;;3.67;;
68989;SDS011;56046;47.270;11.368;2022-09-30T12:03:13;5.65;;;3.80;;
68989;SDS011;56046;47.270;11.368;2022-09-30T12:06:04;5.80;;;3.78;;
68989;SDS011;56046;47.270;11.368;2022-09-30T12:08:34;5.50;;;3.60;;
68989;SDS011;56046;47.270;11.368;2022-09-30T12:13:27;5.30;;;3.60;;
68989;SDS011;56046;47.270;11.368;2022-09-30T12:15:55;5.70;;;3.38;;
68989;SDS011;56046;47.270;11.368;2022-09-30T12:18:32;5.95;;;4.03;;
68989;SDS011;56046;47.270;11.368;2022-09-30T12:21:21;7.32;;;3.80;;
68989;SDS011;56046;47.270;11.368;2022-09-30T12:23:45;6.30;;;3.53;;
68989;SDS011;56046;47.270;11.368;2022-09-30T12:26:13;8.15;;;3.90;;
68989;SDS011;56046;47.270;11.368;2022-09-30T12:28:50;6.15;;;3.40;;
68989;SDS011;56046;47.270;11.368;2022-09-30T12:31:43;7.60;;;3.53;;
68989;SDS011;56046;47.270;11.368;2022-09-30T12:42:10;6.50;;;3.65;;
68989;SDS011;56046;47.270;11.368;2022-09-30T12:47:39;6.68;;;3.83;;
68989;SDS011;56046;47.270;11.368;2022-09-30T12:50:11;7.53;;;4.00;;
68989;SDS011;56046;47.270;11.368;2022-09-30T12:52:37;6.32;;;3.60;;
68989;SDS011;56046;47.270;11.368;2022-09-30T12:55:07;5.57;;;3.40;;
68989;SDS011;56046;47.270;11.368;2022-09-30T12:57:35;5.63;;;3.20;;
68989;SDS011;56046;47.270;11.368;2022-09-30T13:00:04;5.72;;;3.13;;
68989;SDS011;56046;47.270;11.368;2022-09-30T13:02:39;6.95;;;3.10;;
68989;SDS011;56046;47.270;11.368;2022-09-30T13:25:58;4.13;;;2.47;;
68989;SDS011;56046;47.270;11.368;2022-09-30T13:30:49;5.33;;;2.43;;
68989;SDS011;56046;47.270;11.368;2022-09-30T13:33:45;4.90;;;2.90;;
68989;SDS011;56046;47.270;11.368;2022-09-30T13:36:18;3.38;;;2.08;;
68989;SDS011;56046;47.270;11.368;2022-09-30T13:38:48;5.07;;;2.55;;
68989;SDS011;56046;47.270;11.368;2022-09-30T13:41:29;3.43;;;2.37;;
68989;SDS011;56046;47.270;11.368;2022-09-30T13:44:01;4.05;;;2.30;;
68989;SDS011;56046;47.270;11.368;2022-09-30T13:46:31;4.47;;;2.60;;
68989;SDS011;56046;47.270;11.368;2022-09-30T13:49:01;4.70;;;2.72;;
68989;SDS011;56046;47.270;11.368;2022-09-30T13:51:28;3.90;;;2.50;;
68989;SDS011;56046;47.270;11.368;2022-09-30T13:53:57;5.83;;;2.70;;
68989;SDS011;56046;47.270;11.368;2022-09-30T13:56:26;5.18;;;2.58;;
68989;SDS011;56046;47.270;11.368;2022-09-30T14:16:51;4.00;;;2.20;;
68989;SDS011;56046;47.270;11.368;2022-09-30T14:21:51;3.53;;;2.23;;
68989;SDS011;56046;47.270;11.368;2022-09-30T14:24:24;6.10;;;2.13;;
68989;SDS011;56046;47.270;11.368;2022-09-30T14:32:24;4.68;;;2.50;;
68989;SDS011;56046;47.270;11.368;2022-09-30T14:34:50;3.87;;;2.40;;
68989;SDS011;56046;47.270;11.368;2022-09-30T14:37:29;5.15;;;2.47;;
68989;SDS011;56046;47.270;11.368;2022-09-30T14:39:55;4.80;;;2.40;;
68989;SDS011;56046;47.270;11.368;2022-09-30T14:42:23;4.00;;;2.53;;
68989;SDS011;56046;47.270;11.368;2022-09-30T14:44:50;4.17;;;2.57;;
68989;SDS011;56046;47.270;11.368;2022-09-30T14:47:16;4.43;;;2.63;;
68989;SDS011;56046;47.270;11.368;2022-09-30T14:49:42;4.53;;;2.13;;
68989;SDS011;56046;47.270;11.368;2022-09-30T14:52:31;5.83;;;2.50;;
68989;SDS011;56046;47.270;11.368;2022-09-30T14:54:53;4.70;;;2.10;;
68989;SDS011;56046;47.270;11.368;2022-09-30T14:57:19;3.15;;;2.03;;
68989;SDS011;56046;47.270;11.368;2022-09-30T14:59:44;2.67;;;1.77;;
68989;SDS011;56046;47.270;11.368;2022-09-30T15:02:18;3.23;;;1.90;;
68989;SDS011;56046;47.270;11.368;2022-09-30T15:04:51;2.87;;;1.70;;
68989;SDS011;56046;47.270;11.368;2022-09-30T15:07:16;4.70;;;1.92;;
68989;SDS011;56046;47.270;11.368;2022-09-30T15:09:42;4.97;;;2.85;;
68989;SDS011;56046;47.270;11.368;2022-09-30T15:12:13;2.90;;;1.80;;
68989;SDS011;56046;47.270;11.368;2022-09-30T15:14:46;3.13;;;2.00;;
68989;SDS011;56046;47.270;11.368;2022-09-30T15:17:19;3.47;;;2.20;;
68989;SDS011;56046;47.270;11.368;2022-09-30T15:19:45;3.38;;;1.88;;
68989;SDS011;56046;47.270;11.368;2022-09-30T15:22:11;2.83;;;1.77;;
68989;SDS011;56046;47.270;11.368;2022-09-30T15:24:37;3.70;;;1.88;;
68989;SDS011;56046;47.270;11.368;2022-09-30T15:27:04;2.55;;;1.60;;
68989;SDS011;56046;47.270;11.368;2022-09-30T15:29:31;2.95;;;1.38;;
68989;SDS011;56046;47.270;11.368;2022-09-30T15:32:17;1.97;;;1.40;;
68989;SDS011;56046;47.270;11.368;2022-09-30T15:34:43;5.18;;;1.60;;
68989;SDS011;56046;47.270;11.368;2022-09-30T15:37:14;2.13;;;1.23;;
68989;SDS011;56046;47.270;11.368;2022-09-30T15:39:44;2.25;;;1.40;;
68989;SDS011;56046;47.270;11.368;2022-09-30T15:42:30;3.90;;;2.00;;
68989;SDS011;56046;47.270;11.368;2022-09-30T15:44:59;4.72;;;2.58;;
68989;SDS011;56046;47.270;11.368;2022-09-30T15:47:25;3.75;;;1.80;;
68989;SDS011;56046;47.270;11.368;2022-09-30T15:49:51;3.17;;;1.70;;
68989;SDS011;56046;47.270;11.368;2022-09-30T15:52:30;4.18;;;1.80;;
68989;SDS011;56046;47.270;11.368;2022-09-30T15:55:00;3.80;;;1.60;;
68989;SDS011;56046;47.270;11.368;2022-09-30T15:57:45;4.13;;;1.60;;
68989;SDS011;56046;47.270;11.368;2022-09-30T16:03:04;5.53;;;1.38;;
68989;SDS011;56046;47.270;11.368;2022-09-30T16:05:30;7.20;;;2.53;;
68989;SDS011;56046;47.270;11.368;2022-09-30T16:07:56;7.97;;;2.13;;
68989;SDS011;56046;47.270;11.368;2022-09-30T16:10:22;3.93;;;1.57;;
68989;SDS011;56046;47.270;11.368;2022-09-30T16:12:47;2.90;;;1.30;;
68989;SDS011;56046;47.270;11.368;2022-09-30T16:15:13;3.90;;;1.40;;
68989;SDS011;56046;47.270;11.368;2022-09-30T16:17:43;3.63;;;1.50;;
68989;SDS011;56046;47.270;11.368;2022-09-30T16:27:46;3.50;;;1.43;;
68989;SDS011;56046;47.270;11.368;2022-09-30T16:30:12;2.78;;;1.45;;
68989;SDS011;56046;47.270;11.368;2022-09-30T16:32:39;3.42;;;1.63;;
68989;SDS011;56046;47.270;11.368;2022-09-30T16:35:05;3.75;;;1.60;;
68989;SDS011;56046;47.270;11.368;2022-09-30T16:37:31;4.23;;;1.20;;
68989;SDS011;56046;47.270;11.368;2022-09-30T16:39:57;3.07;;;1.27;;
68989;SDS011;56046;47.270;11.368;2022-09-30T16:42:25;3.20;;;1.30;;
68989;SDS011;56046;47.270;11.368;2022-09-30T16:44:51;2.30;;;1.10;;
68989;SDS011;56046;47.270;11.368;2022-09-30T16:47:17;3.10;;;1.40;;
68989;SDS011;56046;47.270;11.368;2022-09-30T16:49:44;6.00;;;1.02;;
68989;SDS011;56046;47.270;11.368;2022-09-30T16:52:10;5.28;;;1.90;;
68989;SDS011;56046;47.270;11.368;2022-09-30T16:54:35;3.53;;;1.77;;
68989;SDS011;56046;47.270;11.368;2022-09-30T16:57:01;2.45;;;1.50;;
68989;SDS011;56046;47.270;11.368;2022-09-30T16:59:26;2.17;;;1.40;;
68989;SDS011;56046;47.270;11.368;2022-09-30T17:01:51;2.93;;;1.17;;
68989;SDS011;56046;47.270;11.368;2022-09-30T17:04:17;3.30;;;1.70;;
68989;SDS011;56046;47.270;11.368;2022-09-30T17:06:42;2.70;;;1.30;;
68989;SDS011;56046;47.270;11.368;2022-09-30T17:09:08;2.72;;;1.73;;
68989;SDS011;56046;47.270;11.368;2022-09-30T17:11:34;5.57;;;2.47;;
68989;SDS011;56046;47.270;11.368;2022-09-30T17:13:59;9.50;;;3.58;;
68989;SDS011;56046;47.270;11.368;2022-09-30T17:16:25;9.30;;;3.10;;
68989;SDS011;56046;47.270;11.368;2022-09-30T17:18:50;7.43;;;2.50;;
68989;SDS011;56046;47.270;11.368;2022-09-30T17:21:16;3.78;;;2.05;;
68989;SDS011;56046;47.270;11.368;2022-09-30T17:23:42;4.25;;;2.20;;
68989;SDS011;56046;47.270;11.368;2022-09-30T17:26:07;4.97;;;2.07;;
68989;SDS011;56046;47.270;11.368;2022-09-30T17:28:33;3.30;;;1.80;;
68989;SDS011;56046;47.270;11.368;2022-09-30T17:30:59;3.30;;;1.77;;
68989;SDS011;56046;47.270;11.368;2022-09-30T17:33:28;3.77;;;1.87;;
68989;SDS011;56046;47.270;11.368;2022-09-30T17:35:57;3.08;;;1.70;;
68989;SDS011;56046;47.270;11.368;2022-09-30T17:38:23;3.08;;;1.80;;
68989;SDS011;56046;47.270;11.368;2022-09-30T17:40:48;4.07;;;1.80;;
68989;SDS011;56046;47.270;11.368;2022-09-30T17:43:32;2.97;;;2.03;;
68989;SDS011;56046;47.270;11.368;2022-09-30T17:45:58;3.30;;;2.00;;
68989;SDS011;56046;47.270;11.368;2022-09-30T17:48:23;3.55;;;1.70;;
68989;SDS011;56046;47.270;11.368;2022-09-30T17:50:48;3.13;;;1.53;;
68989;SDS011;56046;47.270;11.368;2022-09-30T17:53:16;3.25;;;1.75;;
68989;SDS011;56046;47.270;11.368;2022-09-30T17:55:43;4.90;;;2.07;;
68989;SDS011;56046;47.270;11.368;2022-09-30T17:58:11;4.00;;;1.88;;
68989;SDS011;56046;47.270;11.368;2022-09-30T18:00:36;3.85;;;1.70;;
68989;SDS011;56046;47.270;11.368;2022-09-30T18:03:02;3.23;;;1.60;;
68989;SDS011;56046;47.270;11.368;2022-09-30T18:05:29;3.63;;;2.10;;
68989;SDS011;56046;47.270;11.368;2022-09-30T18:07:54;3.47;;;1.90;;